Callander, Canada
Current Conditions -  °F | °C
As of 6:00 PM on Sunday 21 Dec 2014 (Local Time) from CYYB Reporting Station
Light Snow Light Snow  
Wind Chill: 18°   Ceiling: 2500
Heat Index: 25°   Visibility: 12mi
Dew Point: 21°   Wind: 6mph
Humidity: 86%   Direction: 130°SE
Pressure: 30.24"   Gusts: NA
Location:  46.22°N, 79.36°W
Report Text: CYYB 212300Z 13005KT 12SM -SN OVC025 M04/M06 A3024 RMK SC8 SLP265
Loading
Personal Weather Stations






























Interactive Weather Map New forecast layout! Learn more

10-Day Weather Forecast

Advertisements
Track Severe Weather on mobile